Portada
METAR-TAF:

METAR-TAF

Aeropuertos :

Hamadán, Irán

latitud: 34-52-05N, longitud: 048-33-08E, altitud: 1757 m

Observación

El informe se hizo hace 2 horas y 26 minutos, a las 09:00 UTC
Viento 4 kt del norte-noreste con ráfagas de 17 kt
Temperatura 19°C
Humedad 18%
Presión 1019 hPa
Visibilidad 10 km o más
sin nubes por debajo de 1500 m y sin presencia de cumulonimbus.

METAR: OIHH 160900Z 03004G17KT CAVOK 19/M06 Q1019

Hora: 15:56 (11:26 UTC)


TAF: falta

Observaciones y pronósticos meteorológicos de más de 4000 aeropuertos (mensajes METAR y TAF).

Los puntos amarillos y rojos representan las estaciones disponibles.

Ponga el ratón en el punto deseado para ver el nombre de la estación.

Haga clic para ver las observaciones y los pronósticos meteorológicos.

Para cambiar el mapa : haga clic en los botones verdes con una cruz de color negro para hacer un zoom, en el botón verde con un guión para alejar o en las flechas verdes para mapas adyacentes.


METAR-TAF: